createdAt,value
2022-07-25T00:02:02.829Z,17.10
2022-07-25T00:04:31.265Z,11.57
2022-07-25T00:06:59.615Z,11.48
2022-07-25T00:09:27.707Z,11.85
2022-07-25T00:11:55.778Z,11.73
2022-07-25T00:14:23.558Z,12.88
2022-07-25T00:16:51.762Z,14.20
2022-07-25T00:19:19.664Z,11.45
2022-07-25T00:21:47.542Z,13.45
2022-07-25T00:24:15.361Z,15.65
2022-07-25T00:26:43.274Z,11.55
2022-07-25T00:29:11.121Z,12.27
2022-07-25T00:31:39.038Z,12.38
2022-07-25T00:34:07.528Z,12.80
2022-07-25T00:36:35.683Z,13.27
2022-07-25T00:39:04.382Z,12.70
2022-07-25T00:41:32.444Z,12.55
2022-07-25T00:44:00.240Z,12.95
2022-07-25T00:46:28.381Z,13.32
2022-07-25T00:48:56.367Z,14.60
2022-07-25T00:51:25.349Z,13.95
2022-07-25T00:53:53.271Z,13.00
2022-07-25T00:56:21.217Z,15.25
2022-07-25T00:58:49.035Z,13.73
2022-07-25T01:01:17.062Z,13.13
2022-07-25T01:03:45.014Z,13.23
2022-07-25T01:06:13.144Z,13.52
2022-07-25T01:08:41.611Z,13.82
2022-07-25T01:11:11.047Z,14.02
2022-07-25T01:13:39.035Z,13.65
2022-07-25T01:16:07.182Z,12.80
2022-07-25T01:18:35.131Z,14.10
2022-07-25T01:21:03.223Z,12.93
2022-07-25T01:23:31.154Z,12.93
2022-07-25T01:25:59.041Z,15.52
2022-07-25T01:28:28.135Z,13.52
2022-07-25T01:30:56.035Z,13.55
2022-07-25T01:33:24.089Z,13.73
2022-07-25T01:35:52.492Z,13.65
2022-07-25T01:38:20.348Z,13.95
2022-07-25T01:40:48.236Z,13.98
2022-07-25T01:43:16.169Z,15.85
2022-07-25T01:45:44.147Z,15.48
2022-07-25T01:48:12.051Z,14.02
2022-07-25T01:50:39.973Z,15.40
2022-07-25T01:53:07.867Z,14.70
2022-07-25T01:55:35.762Z,14.52
2022-07-25T01:58:04.454Z,15.30
2022-07-25T02:00:34.771Z,15.65
2022-07-25T02:03:31.266Z,15.90
2022-07-25T02:06:02.257Z,14.05
2022-07-25T02:08:30.900Z,14.60
2022-07-25T02:10:59.991Z,14.60
2022-07-25T02:13:28.056Z,16.42
2022-07-25T02:15:55.863Z,15.80
2022-07-25T02:18:23.822Z,14.82
2022-07-25T02:20:51.640Z,16.02
2022-07-25T02:23:19.504Z,15.70
2022-07-25T02:25:47.312Z,14.75
2022-07-25T02:28:15.240Z,14.07
2022-07-25T02:30:43.105Z,16.05
2022-07-25T02:33:11.018Z,17.83
2022-07-25T02:35:38.993Z,15.55
2022-07-25T02:38:06.842Z,16.05
2022-07-25T02:40:34.743Z,14.88
2022-07-25T02:43:02.610Z,18.58
2022-07-25T02:45:30.449Z,15.15
2022-07-25T02:47:58.376Z,15.10
2022-07-25T02:50:26.449Z,17.27
2022-07-25T02:52:54.245Z,15.10
2022-07-25T02:55:22.398Z,16.15
2022-07-25T02:57:50.228Z,16.05
2022-07-25T03:00:18.506Z,17.65
2022-07-25T03:02:46.583Z,14.82
2022-07-25T03:05:15.684Z,16.20
2022-07-25T03:07:45.379Z,16.70
2022-07-25T03:10:14.896Z,16.95
2022-07-25T03:12:44.220Z,18.38
2022-07-25T03:15:13.588Z,17.33
2022-07-25T03:17:42.228Z,16.58
2022-07-25T03:20:11.478Z,17.70
2022-07-25T03:22:39.413Z,15.95
2022-07-25T03:25:15.656Z,17.77
2022-07-25T03:27:50.330Z,15.00
2022-07-25T03:30:18.418Z,14.57
2022-07-25T03:32:46.271Z,12.95
2022-07-25T03:35:15.510Z,14.40
2022-07-25T03:37:43.456Z,13.52
2022-07-25T03:40:11.995Z,14.70
2022-07-25T03:42:40.354Z,18.75
2022-07-25T03:45:08.850Z,16.65
2022-07-25T03:47:36.817Z,15.48
2022-07-25T03:50:05.013Z,13.68
2022-07-25T03:52:32.924Z,16.65
2022-07-25T03:55:00.752Z,15.48
2022-07-25T03:57:28.654Z,16.42
2022-07-25T03:59:56.672Z,16.77
2022-07-25T04:02:24.819Z,16.42
2022-07-25T04:04:52.900Z,16.60
2022-07-25T04:07:20.837Z,18.33
2022-07-25T04:09:48.735Z,15.75
2022-07-25T04:12:16.785Z,16.48
2022-07-25T04:14:44.799Z,17.08
2022-07-25T04:17:12.752Z,17.73
2022-07-25T04:19:40.924Z,15.63
2022-07-25T04:22:08.779Z,16.08
2022-07-25T04:24:36.708Z,16.13
2022-07-25T04:27:04.650Z,13.60
2022-07-25T04:29:32.673Z,14.70
2022-07-25T04:32:00.784Z,15.30
2022-07-25T04:34:28.892Z,15.05
2022-07-25T04:36:56.997Z,15.82
2022-07-25T04:39:24.886Z,15.65
2022-07-25T04:41:52.886Z,13.93
2022-07-25T04:44:20.911Z,16.17
2022-07-25T04:46:48.838Z,13.68
2022-07-25T04:49:17.028Z,13.98
2022-07-25T04:51:44.962Z,12.75
2022-07-25T04:54:12.879Z,12.77
2022-07-25T04:56:40.702Z,12.93
2022-07-25T04:59:08.598Z,12.20
2022-07-25T05:01:36.869Z,14.50
2022-07-25T05:04:05.131Z,12.82
2022-07-25T05:06:33.333Z,10.93
2022-07-25T05:09:01.308Z,11.60
2022-07-25T05:11:29.382Z,10.60
2022-07-25T05:13:57.343Z,10.82
2022-07-25T05:16:25.286Z,12.73
2022-07-25T05:18:53.329Z,14.80
2022-07-25T05:21:21.252Z,13.00
2022-07-25T05:23:49.500Z,12.27
2022-07-25T05:26:17.377Z,12.13
2022-07-25T05:28:45.233Z,12.35
2022-07-25T05:36:23.118Z,11.20
2022-07-25T05:38:50.896Z,10.52
2022-07-25T05:41:18.760Z,13.25
2022-07-25T05:43:48.804Z,10.45
2022-07-25T05:46:17.054Z,11.05
2022-07-25T05:48:45.254Z,11.23
2022-07-25T05:51:14.227Z,13.90
2022-07-25T05:53:42.140Z,11.63
2022-07-25T05:56:10.234Z,13.73
2022-07-25T05:58:40.541Z,12.23
2022-07-25T06:01:18.178Z,13.38
2022-07-25T06:03:46.061Z,12.90
2022-07-25T06:06:14.213Z,11.95
2022-07-25T06:08:42.239Z,10.90
2022-07-25T06:11:10.294Z,12.57
2022-07-25T06:13:38.200Z,10.77
2022-07-25T06:16:06.253Z,12.40
2022-07-25T06:18:34.182Z,12.05
2022-07-25T06:21:02.197Z,9.25
2022-07-25T06:23:31.624Z,12.90
2022-07-25T06:25:59.519Z,13.20
2022-07-25T06:28:27.648Z,9.80
2022-07-25T06:30:55.694Z,12.35
2022-07-25T06:33:23.716Z,10.93
2022-07-25T06:35:51.598Z,13.35
2022-07-25T06:38:19.551Z,13.38
2022-07-25T06:40:47.448Z,14.02
2022-07-25T06:43:15.433Z,15.63
2022-07-25T06:45:47.446Z,10.73
2022-07-25T06:48:16.086Z,12.27
2022-07-25T06:50:44.652Z,9.75
2022-07-25T06:53:12.794Z,9.70
2022-07-25T06:55:40.716Z,9.27
2022-07-25T06:58:08.618Z,11.15
2022-07-25T07:00:36.536Z,10.23
2022-07-25T07:03:04.717Z,11.50
2022-07-25T07:05:34.313Z,10.82
2022-07-25T07:08:02.557Z,10.05
2022-07-25T07:10:32.099Z,11.40
2022-07-25T07:13:08.364Z,8.40
2022-07-25T07:15:37.037Z,10.40
2022-07-25T07:18:06.935Z,7.90
2022-07-25T07:20:35.855Z,8.55
2022-07-25T07:23:03.894Z,9.57
2022-07-25T07:25:31.843Z,11.50
2022-07-25T07:28:00.150Z,8.48
2022-07-25T07:30:52.163Z,14.43
2022-07-25T07:33:15.874Z,11.88
2022-07-25T07:35:45.232Z,7.97
2022-07-25T07:38:13.284Z,13.82
2022-07-25T07:40:41.270Z,9.38
2022-07-25T07:43:09.107Z,10.82
2022-07-25T07:45:36.927Z,8.52
2022-07-25T07:48:06.542Z,8.57
2022-07-25T07:50:34.798Z,10.52
2022-07-25T07:53:02.811Z,8.35
2022-07-25T07:55:48.686Z,8.50
2022-07-25T07:58:18.965Z,8.25
2022-07-25T08:00:49.503Z,7.78
2022-07-25T08:03:21.836Z,10.07
2022-07-25T08:05:51.725Z,8.50
2022-07-25T08:08:20.334Z,9.13
2022-07-25T08:10:49.328Z,9.50
2022-07-25T08:13:18.678Z,8.13
2022-07-25T08:15:52.507Z,8.95
2022-07-25T08:18:20.858Z,9.30
2022-07-25T08:20:49.398Z,13.10
2022-07-25T08:23:18.598Z,6.82
2022-07-25T08:25:47.124Z,10.40
2022-07-25T08:28:15.511Z,8.63
2022-07-25T08:30:43.528Z,9.50
2022-07-25T08:33:13.733Z,7.57
2022-07-25T08:35:53.706Z,10.25
2022-07-25T08:38:23.881Z,7.97
2022-07-25T08:40:53.270Z,8.30
2022-07-25T08:43:21.396Z,8.10
2022-07-25T08:45:52.271Z,8.95
2022-07-25T08:48:23.147Z,7.75
2022-07-25T08:50:52.531Z,9.77
2022-07-25T08:53:37.156Z,9.95
2022-07-25T08:56:13.332Z,10.38
2022-07-25T08:58:43.938Z,8.07
2022-07-25T09:01:13.674Z,9.00
2022-07-25T09:03:43.548Z,9.27
2022-07-25T09:10:51.883Z,9.45
2022-07-25T09:13:22.322Z,6.18
2022-07-25T09:15:56.907Z,7.73
2022-07-25T09:18:27.357Z,7.43
2022-07-25T09:21:00.683Z,9.38
2022-07-25T09:23:39.084Z,7.72
2022-07-25T09:26:13.186Z,8.98
2022-07-25T09:28:41.343Z,9.65
2022-07-25T09:31:10.016Z,13.02
2022-07-25T09:33:48.156Z,9.48
2022-07-25T09:36:16.413Z,9.60
2022-07-25T09:38:54.475Z,8.57
2022-07-25T09:41:22.872Z,9.25
2022-07-25T09:43:50.750Z,8.75
2022-07-25T09:46:29.357Z,9.38
2022-07-25T09:48:58.998Z,10.35
2022-07-25T09:51:27.995Z,8.65
2022-07-25T09:53:56.149Z,8.80
2022-07-25T09:56:24.165Z,8.63
2022-07-25T09:58:52.926Z,7.55
2022-07-25T10:01:32.726Z,7.07
2022-07-25T10:04:18.005Z,8.02
2022-07-25T10:07:09.877Z,7.93
2022-07-25T10:09:49.273Z,11.40
2022-07-25T10:12:22.161Z,9.73
2022-07-25T10:15:11.934Z,7.18
2022-07-25T10:17:41.735Z,7.68
2022-07-25T10:20:10.892Z,10.65
2022-07-25T10:22:56.176Z,10.18
2022-07-25T10:25:24.553Z,9.18
2022-07-25T10:28:01.281Z,10.98
2022-07-25T10:30:39.515Z,6.78
2022-07-25T10:33:19.211Z,9.38
2022-07-25T10:35:47.516Z,9.15
2022-07-25T10:38:24.927Z,9.15
2022-07-25T10:40:53.334Z,7.85
2022-07-25T10:43:22.934Z,9.05
2022-07-25T10:45:57.965Z,7.30
2022-07-25T10:48:31.561Z,9.52
2022-07-25T10:51:09.987Z,8.77
2022-07-25T10:53:48.555Z,7.78
2022-07-25T10:56:22.122Z,7.97
2022-07-25T10:58:59.660Z,8.80
2022-07-25T11:01:29.580Z,8.95
2022-07-25T11:04:02.615Z,7.45
2022-07-25T11:06:36.448Z,7.63
2022-07-25T11:09:27.542Z,7.40
2022-07-25T11:11:58.214Z,7.38
2022-07-25T11:14:33.775Z,7.80
2022-07-25T11:17:20.253Z,8.82
2022-07-25T11:19:58.653Z,9.27
2022-07-25T11:22:27.924Z,7.50
2022-07-25T11:24:59.597Z,8.93
2022-07-25T11:30:14.884Z,7.10
2022-07-25T11:32:49.647Z,7.55
2022-07-25T11:35:24.006Z,6.28
2022-07-25T11:37:52.466Z,8.18
2022-07-25T11:40:22.649Z,8.38
2022-07-25T11:42:53.626Z,7.20
2022-07-25T11:45:29.006Z,8.23
2022-07-25T11:48:12.693Z,7.80
2022-07-25T11:50:45.357Z,7.65
2022-07-25T11:53:16.611Z,6.53
2022-07-25T11:55:44.780Z,7.72
2022-07-25T11:58:13.961Z,9.48
2022-07-25T12:00:44.419Z,7.20
2022-07-25T12:03:20.286Z,7.90
2022-07-25T12:05:49.811Z,6.20
2022-07-25T12:08:20.757Z,8.63
2022-07-25T12:10:51.660Z,5.82
2022-07-25T12:13:28.562Z,8.60
2022-07-25T12:15:57.712Z,7.40
2022-07-25T12:18:26.607Z,6.57
2022-07-25T12:20:54.572Z,8.20
2022-07-25T12:23:22.487Z,10.18
2022-07-25T12:25:50.921Z,8.75
2022-07-25T12:28:19.030Z,6.50
2022-07-25T12:30:50.496Z,9.23
2022-07-25T12:33:20.914Z,11.13
2022-07-25T12:35:48.839Z,12.35
2022-07-25T12:38:16.870Z,9.88
2022-07-25T12:40:44.909Z,9.85
2022-07-25T12:43:12.777Z,9.70
2022-07-25T12:45:41.107Z,11.50
2022-07-25T12:48:09.349Z,9.70
2022-07-25T12:50:37.576Z,10.88
2022-07-25T12:53:05.441Z,7.63
2022-07-25T12:55:33.358Z,7.00
2022-07-25T12:58:01.361Z,8.43
2022-07-25T13:00:29.261Z,11.13
2022-07-25T13:02:57.391Z,9.05
2022-07-25T13:05:25.959Z,8.68
2022-07-25T13:07:53.912Z,11.23
2022-07-25T13:10:21.823Z,8.43
2022-07-25T13:12:49.729Z,11.38
2022-07-25T13:15:20.650Z,10.75
2022-07-25T13:17:50.298Z,9.43
2022-07-25T13:20:18.168Z,9.40
2022-07-25T13:22:46.161Z,7.75
2022-07-25T13:25:14.078Z,9.48
2022-07-25T13:27:41.883Z,9.20
2022-07-25T13:30:10.254Z,9.50
2022-07-25T13:32:38.103Z,8.05
2022-07-25T13:35:06.525Z,9.23
2022-07-25T13:37:34.431Z,9.75
2022-07-25T13:40:02.534Z,8.50
2022-07-25T13:42:31.397Z,7.55
2022-07-25T13:44:59.264Z,8.38
2022-07-25T13:47:30.415Z,7.30
2022-07-25T13:49:58.514Z,7.95
2022-07-25T13:52:26.433Z,8.43
2022-07-25T13:54:54.250Z,10.07
2022-07-25T13:57:22.218Z,9.45
2022-07-25T13:59:50.006Z,7.60
2022-07-25T14:02:17.952Z,7.05
2022-07-25T14:04:46.440Z,8.75
2022-07-25T14:07:14.433Z,9.13
2022-07-25T14:09:42.386Z,7.68
2022-07-25T14:12:10.230Z,8.90
2022-07-25T14:14:38.439Z,8.63
2022-07-25T14:17:06.429Z,8.18
2022-07-25T14:19:34.267Z,8.18
2022-07-25T14:22:02.159Z,13.25
2022-07-25T14:24:30.206Z,7.45
2022-07-25T14:26:58.709Z,10.57
2022-07-25T14:29:30.436Z,9.30
2022-07-25T14:34:26.495Z,8.68
2022-07-25T14:36:54.427Z,8.88
2022-07-25T14:39:22.228Z,8.95
2022-07-25T14:41:50.065Z,10.15
2022-07-25T14:44:18.156Z,8.05
2022-07-25T14:46:46.245Z,7.75
2022-07-25T14:49:15.260Z,10.63
2022-07-25T14:51:45.676Z,9.18
2022-07-25T14:54:13.723Z,9.25
2022-07-25T14:56:43.106Z,9.32
2022-07-25T14:59:11.690Z,8.63
2022-07-25T15:01:40.019Z,7.78
2022-07-25T15:04:08.138Z,9.80
2022-07-25T15:06:36.419Z,10.25
2022-07-25T15:09:05.251Z,8.13
2022-07-25T15:11:33.481Z,9.82
2022-07-25T15:14:01.549Z,6.85
2022-07-25T15:16:29.866Z,9.45
2022-07-25T15:19:15.915Z,10.68
2022-07-25T15:21:45.544Z,7.75
2022-07-25T15:24:14.090Z,9.13
2022-07-25T15:26:42.249Z,11.90
2022-07-25T15:29:11.316Z,9.73
2022-07-25T15:31:39.658Z,12.50
2022-07-25T15:34:07.755Z,10.48
2022-07-25T15:36:35.623Z,8.20
2022-07-25T15:39:03.916Z,9.35
2022-07-25T15:41:31.958Z,11.93
2022-07-25T15:44:00.052Z,8.75
2022-07-25T15:46:29.061Z,8.80
2022-07-25T15:48:57.900Z,9.88
2022-07-25T15:51:26.372Z,10.15
2022-07-25T15:53:54.244Z,10.50
2022-07-25T15:56:22.213Z,9.27
2022-07-25T15:58:50.040Z,11.18
2022-07-25T16:01:18.090Z,16.98
2022-07-25T16:03:46.120Z,9.05
2022-07-25T16:06:18.746Z,8.60
2022-07-25T16:08:48.330Z,8.73
2022-07-25T16:11:24.964Z,15.07
2022-07-25T16:13:53.883Z,9.75
2022-07-25T16:16:22.191Z,10.23
2022-07-25T16:18:50.429Z,9.07
2022-07-25T16:21:18.935Z,10.60
2022-07-25T16:23:48.376Z,9.23
2022-07-25T16:26:16.733Z,8.00
2022-07-25T16:28:45.485Z,9.15
2022-07-25T16:31:13.731Z,8.15
2022-07-25T16:33:41.738Z,10.23
2022-07-25T16:36:11.344Z,8.95
2022-07-25T16:38:39.664Z,9.55
2022-07-25T16:41:07.707Z,9.30
2022-07-25T16:43:35.834Z,11.23
2022-07-25T16:46:04.120Z,9.73
2022-07-25T16:48:32.593Z,12.73
2022-07-25T16:51:00.732Z,11.52
2022-07-25T16:53:28.839Z,11.25
2022-07-25T16:55:56.930Z,8.32
2022-07-25T16:58:25.256Z,6.97
2022-07-25T17:00:53.515Z,9.45
2022-07-25T17:03:21.753Z,9.90
2022-07-25T17:05:51.833Z,7.97
2022-07-25T17:08:19.909Z,10.00
2022-07-25T17:10:48.486Z,10.00
2022-07-25T17:13:16.912Z,8.20
2022-07-25T17:15:45.576Z,7.93
2022-07-25T17:18:14.414Z,9.23
2022-07-25T17:20:42.628Z,10.32
2022-07-25T17:23:11.326Z,10.40
2022-07-25T17:25:40.765Z,8.35
2022-07-25T17:28:08.850Z,11.65
2022-07-25T17:30:36.839Z,9.07
2022-07-25T17:33:05.083Z,7.80
2022-07-25T17:35:32.999Z,10.88
2022-07-25T17:38:01.495Z,10.25
2022-07-25T17:40:29.694Z,9.55
2022-07-25T17:42:57.907Z,10.55
2022-07-25T17:45:26.253Z,9.57
2022-07-25T17:47:54.232Z,7.45
2022-07-25T17:50:28.618Z,11.70
2022-07-25T17:52:59.628Z,9.88
2022-07-25T17:55:28.932Z,9.77
2022-07-25T17:57:59.655Z,10.00
2022-07-25T18:00:37.575Z,9.25
2022-07-25T18:03:05.795Z,9.73
2022-07-25T18:05:33.968Z,12.10
2022-07-25T18:08:03.216Z,10.00
2022-07-25T18:10:31.261Z,8.13
2022-07-25T18:13:00.884Z,10.15
2022-07-25T18:15:29.731Z,8.73
2022-07-25T18:18:09.008Z,8.63
2022-07-25T18:20:40.333Z,9.13
2022-07-25T18:23:08.315Z,11.63
2022-07-25T18:25:37.921Z,9.27
2022-07-25T18:28:06.700Z,12.75
2022-07-25T18:30:34.974Z,11.00
2022-07-25T18:33:02.899Z,13.52
2022-07-25T18:35:31.314Z,11.65
2022-07-25T18:37:59.190Z,9.75
2022-07-25T18:40:27.956Z,11.98
2022-07-25T18:42:55.953Z,10.23
2022-07-25T18:45:24.787Z,11.25
2022-07-25T18:47:52.758Z,9.93
2022-07-25T18:50:20.605Z,13.05
2022-07-25T18:52:48.541Z,12.27
2022-07-25T18:55:16.407Z,13.70
2022-07-25T18:57:44.831Z,12.57
2022-07-25T19:00:12.865Z,11.32
2022-07-25T19:02:40.818Z,8.95
2022-07-25T19:05:09.243Z,14.18
2022-07-25T19:07:37.808Z,12.57
2022-07-25T19:10:06.639Z,12.90
2022-07-25T19:12:34.694Z,13.05
2022-07-25T19:15:02.668Z,11.02
2022-07-25T19:17:33.678Z,12.60
2022-07-25T19:20:01.915Z,13.10
2022-07-25T19:22:31.739Z,10.07
2022-07-25T19:25:05.454Z,12.60
2022-07-25T19:27:33.397Z,11.27
2022-07-25T19:30:01.413Z,12.32
2022-07-25T19:32:31.525Z,11.63
2022-07-25T19:34:59.444Z,9.52
2022-07-25T19:37:27.257Z,12.90
2022-07-25T19:39:55.246Z,13.75
2022-07-25T19:42:23.340Z,14.93
2022-07-25T19:44:51.545Z,13.38
2022-07-25T19:47:19.530Z,12.95
2022-07-25T19:49:47.421Z,14.60
2022-07-25T19:52:15.251Z,13.68
2022-07-25T19:54:43.426Z,11.65
2022-07-25T19:57:11.339Z,11.02
2022-07-25T19:59:39.798Z,12.50
2022-07-25T20:02:08.277Z,12.63
2022-07-25T20:04:36.995Z,13.75
2022-07-25T20:07:04.963Z,12.95
2022-07-25T20:09:33.794Z,13.60
2022-07-25T20:12:03.432Z,15.38
2022-07-25T20:14:31.426Z,10.60
2022-07-25T20:16:59.411Z,15.07
2022-07-25T20:19:27.319Z,14.05
2022-07-25T20:21:55.225Z,13.65
2022-07-25T20:24:23.184Z,12.88
2022-07-25T20:26:51.141Z,13.95
2022-07-25T20:29:19.210Z,14.20
2022-07-25T20:31:47.144Z,13.40
2022-07-25T20:34:16.042Z,13.38
2022-07-25T20:36:47.747Z,12.43
2022-07-25T20:39:15.691Z,13.40
2022-07-25T20:41:44.632Z,13.45
2022-07-25T20:44:12.804Z,15.13
2022-07-25T20:46:40.782Z,17.10
2022-07-25T20:49:09.841Z,15.02
2022-07-25T20:51:41.997Z,14.30
2022-07-25T20:54:10.054Z,15.57
2022-07-25T20:56:37.878Z,13.98
2022-07-25T20:59:05.994Z,20.05
2022-07-25T21:01:34.248Z,12.82
2022-07-25T21:04:07.037Z,17.27
2022-07-25T21:06:36.707Z,13.88
2022-07-25T21:09:06.072Z,18.75
2022-07-25T21:11:36.029Z,12.52
2022-07-25T21:14:05.093Z,13.75
2022-07-25T21:16:33.749Z,11.80
2022-07-25T21:19:01.762Z,15.38
2022-07-25T21:21:29.671Z,13.98
2022-07-25T21:23:57.496Z,15.00
2022-07-25T21:26:25.341Z,12.77
2022-07-25T21:28:53.222Z,13.85
2022-07-25T21:31:22.770Z,12.90
2022-07-25T21:33:50.792Z,15.02
2022-07-25T21:36:18.742Z,16.77
2022-07-25T21:38:47.189Z,14.10
2022-07-25T21:41:15.524Z,12.85
2022-07-25T21:43:44.304Z,12.70
2022-07-25T21:46:13.063Z,14.43
2022-07-25T21:48:59.758Z,13.88
2022-07-25T21:51:36.774Z,12.48
2022-07-25T21:54:09.021Z,14.68
2022-07-25T21:56:36.939Z,15.43
2022-07-25T21:59:05.416Z,13.13
2022-07-25T22:01:33.754Z,17.45
2022-07-25T22:04:01.722Z,15.32
2022-07-25T22:06:29.566Z,15.18
2022-07-25T22:08:57.522Z,13.25
2022-07-25T22:11:45.660Z,12.80
2022-07-25T22:14:13.724Z,14.63
2022-07-25T22:16:42.103Z,14.98
2022-07-25T22:19:10.583Z,15.70
2022-07-25T22:21:40.465Z,16.90
2022-07-25T22:24:09.531Z,14.40
2022-07-25T22:26:37.724Z,15.20
2022-07-25T22:29:06.022Z,15.38
2022-07-25T22:31:34.454Z,14.80
2022-07-25T22:34:02.421Z,12.98
2022-07-25T22:36:30.259Z,16.75
2022-07-25T22:38:58.121Z,16.85
2022-07-25T22:41:26.027Z,18.33
2022-07-25T22:43:57.824Z,14.50
2022-07-25T22:46:29.109Z,15.02
2022-07-25T22:51:29.335Z,15.02
2022-07-25T22:53:58.261Z,14.70
2022-07-25T22:56:26.754Z,13.23
2022-07-25T22:58:54.911Z,15.15
2022-07-25T23:01:23.093Z,14.80
2022-07-25T23:03:51.516Z,15.35
2022-07-25T23:06:20.510Z,15.18
2022-07-25T23:08:49.364Z,14.40
2022-07-25T23:11:17.651Z,14.65
2022-07-25T23:13:45.671Z,13.65
2022-07-25T23:16:13.587Z,12.40
2022-07-25T23:18:41.473Z,13.65
2022-07-25T23:21:09.413Z,14.13
2022-07-25T23:23:37.228Z,14.40
2022-07-25T23:26:05.078Z,16.42
2022-07-25T23:28:32.947Z,12.93
2022-07-25T23:31:03.825Z,14.07
2022-07-25T23:33:31.747Z,14.30
2022-07-25T23:36:00.054Z,12.65
2022-07-25T23:38:27.876Z,14.95
2022-07-25T23:40:55.862Z,15.50
2022-07-25T23:43:56.098Z,13.82
2022-07-25T23:46:11.670Z,17.27
2022-07-25T23:48:39.743Z,14.35
2022-07-25T23:51:07.904Z,15.85
2022-07-25T23:53:36.468Z,18.70
2022-07-25T23:56:04.540Z,17.42
2022-07-25T23:58:32.519Z,14.50
